Time;durP1;ratioP1;P1;durP2;ratioP2;P2;SDS_P1;SDS_P2;PMS_P1;PMS_P2;Temp;Humidity;BMP_temperature;BMP_pressure;BME280_temperature;BME280_humidity;BME280_pressure;Samples;Min_cycle;Max_cycle;Signal;HPM_P1;HPM_P2
2022/10/25 00:01:24;;;;;;;10.68;3.67;;;;;;;11.66;100.00;96217.19;5030512;28;20029;-65
2022/10/25 00:03:50;;;;;;;4.15;3.10;;;;;;;11.60;100.00;96213.28;5030284;28;20033;-65
2022/10/25 00:06:16;;;;;;;5.07;3.20;;;;;;;11.60;100.00;96218.56;5030333;28;20032;-65
2022/10/25 00:08:41;;;;;;;3.22;2.90;;;;;;;11.56;100.00;96217.19;5030495;28;20021;-68
2022/10/25 00:11:12;;;;;;;9.95;3.45;;;;;;;11.50;100.00;96220.38;5030288;28;20030;-59
2022/10/25 00:13:37;;;;;;;5.75;3.15;;;;;;;11.45;100.00;96216.34;5029647;28;20398;-60
2022/10/25 00:16:03;;;;;;;6.80;2.88;;;;;;;11.42;100.00;96215.75;5030157;28;20022;-59
2022/10/25 00:18:28;;;;;;;4.63;3.47;;;;;;;11.43;100.00;96217.41;5030302;28;20251;-59
2022/10/25 00:20:54;;;;;;;6.57;2.90;;;;;;;11.40;100.00;96210.63;5029450;28;20022;-59
2022/10/25 00:23:19;;;;;;;3.80;3.50;;;;;;;11.41;100.00;96209.66;5029949;28;20128;-60
2022/10/25 00:25:45;;;;;;;7.25;3.47;;;;;;;11.39;100.00;96203.69;5029986;28;20433;-63
2022/10/25 00:28:10;;;;;;;11.10;3.70;;;;;;;11.31;100.00;96200.88;5028041;28;20052;-73
2022/10/25 00:30:35;;;;;;;4.05;3.65;;;;;;;11.24;100.00;96203.22;5029874;28;20036;-65
2022/10/25 00:33:01;;;;;;;6.18;3.67;;;;;;;11.23;100.00;96196.28;5030031;28;20029;-64
2022/10/25 00:35:26;;;;;;;9.18;3.65;;;;;;;11.21;100.00;96198.22;5030294;28;20029;-65
2022/10/25 00:37:52;;;;;;;8.70;3.55;;;;;;;11.23;100.00;96195.44;5029713;28;20422;-65
2022/10/25 00:40:17;;;;;;;6.30;3.88;;;;;;;11.22;100.00;96191.16;5029932;28;20083;-64
2022/10/25 00:42:43;;;;;;;6.22;3.45;;;;;;;11.13;100.00;96190.97;5029426;28;20029;-65
2022/10/25 00:45:24;;;;;;;4.38;3.53;;;;;;;11.03;100.00;96190.09;5029713;28;20079;-59
2022/10/25 00:47:55;;;;;;;4.75;2.78;;;;;;;10.99;100.00;96183.44;5018493;28;20021;-59
2022/10/25 00:50:47;;;;;;;8.70;3.05;;;;;;;10.93;100.00;96192.69;5029116;28;20030;-66
2022/10/25 00:53:26;;;;;;;5.35;3.15;;;;;;;10.93;100.00;96186.59;5029589;28;20461;-67
2022/10/25 00:56:02;;;;;;;5.93;3.35;;;;;;;10.92;100.00;96192.81;5017399;28;20033;-66
2022/10/25 00:58:32;;;;;;;3.22;3.03;;;;;;;10.88;100.00;96185.19;5029550;28;20502;-66
2022/10/25 01:00:58;;;;;;;9.90;3.50;;;;;;;10.86;100.00;96189.75;5029589;28;20029;-66
2022/10/25 01:03:24;;;;;;;7.95;3.58;;;;;;;10.82;100.00;96198.88;5029457;28;20084;-66
2022/10/25 01:05:52;;;;;;;7.60;3.60;;;;;;;10.78;100.00;96181.69;5029323;28;20357;-66
2022/10/25 01:08:19;;;;;;;5.95;3.50;;;;;;;10.74;100.00;96175.00;5029580;28;20045;-65
2022/10/25 01:10:46;;;;;;;17.98;3.53;;;;;;;10.67;100.00;96173.84;5016504;28;20446;-65
2022/10/25 01:13:12;;;;;;;7.82;3.40;;;;;;;10.59;100.00;96171.88;5029081;28;20025;-65
2022/10/25 01:15:59;;;;;;;4.13;3.72;;;;;;;10.53;100.00;96169.75;5029405;28;20076;-65
2022/10/25 01:18:42;;;;;;;14.25;3.58;;;;;;;10.51;100.00;96180.44;5029041;28;20079;-65
2022/10/25 01:21:35;;;;;;;3.58;2.67;;;;;;;10.43;100.00;96178.44;5029502;28;20032;-65
2022/10/25 01:24:12;;;;;;;8.38;3.22;;;;;;;10.34;100.00;96178.34;5019504;28;20017;-66
2022/10/25 01:27:22;;;;;;;4.40;3.03;;;;;;;10.31;100.00;96169.75;5027085;28;20386;-71
2022/10/25 01:29:53;;;;;;;6.82;5.57;;;;;;;10.27;100.00;96167.50;5009136;28;20072;-73
2022/10/25 01:33:02;;;;;;;8.05;4.00;;;;;;;10.19;100.00;96168.13;5029411;28;20057;-73
2022/10/25 01:35:38;;;;;;;4.35;3.28;;;;;;;10.17;100.00;96172.69;5033219;28;20033;-72
2022/10/25 01:38:37;;;;;;;3.55;2.83;;;;;;;10.12;100.00;96164.34;5033473;28;20029;-72
2022/10/25 01:41:05;;;;;;;5.25;2.70;;;;;;;10.08;100.00;96157.69;5033145;28;20116;-72
2022/10/25 01:43:58;;;;;;;3.13;2.45;;;;;;;10.06;100.00;96152.53;5032790;28;20104;-59
2022/10/25 01:46:27;;;;;;;6.55;3.38;;;;;;;10.05;100.00;96148.22;5032754;28;20028;-60
2022/10/25 01:49:00;;;;;;;8.25;2.13;;;;;;;10.05;100.00;96150.88;5032914;28;20033;-59
2022/10/25 01:51:27;;;;;;;3.38;1.70;;;;;;;10.02;100.00;96148.50;5032622;28;20053;-59
2022/10/25 01:53:53;;;;;;;3.58;2.10;;;;;;;9.96;100.00;96143.75;5033200;28;20026;-59
2022/10/25 01:56:37;;;;;;;4.65;2.28;;;;;;;9.93;100.00;96149.25;5032261;28;20103;-59
2022/10/25 01:59:14;;;;;;;7.40;5.60;;;;;;;9.83;100.00;96143.91;5032245;28;20494;-59
2022/10/25 02:02:07;;;;;;;7.60;6.70;;;;;;;9.72;100.00;96137.75;5032638;28;20029;-59
2022/10/25 02:04:49;;;;;;;6.90;4.57;;;;;;;9.74;100.00;96130.56;5032702;28;20037;-64
2022/10/25 02:07:18;;;;;;;9.75;3.92;;;;;;;9.76;100.00;96122.56;5032541;28;20049;-60
2022/10/25 02:10:17;;;;;;;6.57;2.50;;;;;;;9.72;100.00;96121.97;5047685;28;20410;-60
2022/10/25 02:12:57;;;;;;;2.65;2.22;;;;;;;9.67;100.00;96124.16;5032601;28;20052;-60
2022/10/25 02:16:01;;;;;;;4.07;2.35;;;;;;;9.63;100.00;96129.78;5021606;28;20033;-60
2022/10/25 02:18:32;;;;;;;9.15;2.55;;;;;;;9.58;100.00;96130.97;5015698;28;20056;-60
2022/10/25 02:21:00;;;;;;;4.70;2.65;;;;;;;9.56;100.00;96129.44;5031972;28;20083;-60
2022/10/25 02:23:26;;;;;;;3.90;2.60;;;;;;;9.54;100.00;96126.94;5032449;28;20026;-73
2022/10/25 02:25:53;;;;;;;2.78;2.30;;;;;;;9.54;100.00;96121.69;5032051;28;20021;-68
2022/10/25 02:28:23;;;;;;;3.67;2.30;;;;;;;9.48;100.00;96126.59;5032211;28;20104;-68
2022/10/25 02:30:51;;;;;;;3.50;3.30;;;;;;;9.45;100.00;96120.63;5031856;28;20028;-67
2022/10/25 02:33:16;;;;;;;4.43;2.97;;;;;;;9.51;100.00;96124.56;5032002;28;20048;-69
2022/10/25 02:35:42;;;;;;;4.80;2.40;;;;;;;9.48;100.00;96122.16;5031586;28;20030;-68
2022/10/25 02:38:08;;;;;;;3.42;2.40;;;;;;;9.45;100.00;96135.56;5032165;28;20032;-68
2022/10/25 02:40:34;;;;;;;2.50;2.13;;;;;;;9.42;100.00;96127.91;5031832;28;20511;-65
2022/10/25 02:42:59;;;;;;;2.20;2.10;;;;;;;9.39;100.00;96131.63;5031974;28;20025;-63
2022/10/25 02:45:24;;;;;;;5.25;2.33;;;;;;;9.38;100.00;96127.31;5031529;28;20056;-71
2022/10/25 02:47:50;;;;;;;5.03;2.35;;;;;;;9.34;100.00;96132.97;5031753;28;20063;-70
2022/10/25 02:50:15;;;;;;;6.05;2.55;;;;;;;9.29;100.00;96136.81;5031588;28;20029;-70
2022/10/25 02:52:40;;;;;;;4.72;2.40;;;;;;;9.23;100.00;96129.41;5032135;28;20067;-71
2022/10/25 02:55:06;;;;;;;3.55;2.22;;;;;;;9.24;100.00;96130.25;5031080;28;20049;-70
2022/10/25 02:57:36;;;;;;;5.30;2.38;;;;;;;9.24;100.00;96125.00;5031789;28;20034;-71
2022/10/25 03:00:06;;;;;;;5.68;2.33;;;;;;;9.21;100.00;96123.44;5031482;28;20565;-65
2022/10/25 03:02:32;;;;;;;2.40;2.20;;;;;;;9.17;100.00;96132.53;5031245;28;20029;-71
2022/10/25 03:04:57;;;;;;;4.30;2.60;;;;;;;9.12;100.00;96130.25;5031626;28;20051;-73
2022/10/25 03:07:23;;;;;;;4.45;2.13;;;;;;;9.11;100.00;96125.13;5046449;28;20070;-73
2022/10/25 03:09:48;;;;;;;2.15;1.85;;;;;;;9.12;100.00;96129.44;5031462;28;20025;-73
2022/10/25 03:12:13;;;;;;;3.08;2.08;;;;;;;9.13;100.00;96126.66;5031712;28;20026;-73
2022/10/25 03:14:39;;;;;;;2.53;2.20;;;;;;;9.11;100.00;96125.97;5031463;28;20040;-73
2022/10/25 03:17:05;;;;;;;2.22;2.00;;;;;;;9.12;100.00;96125.00;5030850;28;20029;-73
2022/10/25 03:19:30;;;;;;;2.38;2.17;;;;;;;9.09;100.00;96125.25;5031135;28;20625;-63
2022/10/25 03:21:56;;;;;;;6.63;2.00;;;;;;;9.05;100.00;96120.34;5031067;28;20022;-71
2022/10/25 03:24:21;;;;;;;5.18;4.28;;;;;;;9.02;100.00;96119.66;5031539;28;20108;-71
2022/10/25 03:26:46;;;;;;;7.05;2.97;;;;;;;9.00;100.00;96131.25;5031047;28;20022;-71
2022/10/25 03:29:12;;;;;;;5.00;2.97;;;;;;;8.97;100.00;96128.88;5031320;28;20057;-71
2022/10/25 03:31:37;;;;;;;7.38;2.20;;;;;;;8.95;100.00;96126.34;5029361;28;20092;-71
2022/10/25 03:34:02;;;;;;;4.80;2.40;;;;;;;8.92;100.00;96128.38;5030751;28;20040;-71
2022/10/25 03:36:28;;;;;;;3.92;2.30;;;;;;;8.92;100.00;96131.00;5030903;28;20112;-71
2022/10/25 03:38:53;;;;;;;6.05;2.25;;;;;;;8.89;100.00;96132.91;5030762;28;20075;-71
2022/10/25 03:41:18;;;;;;;2.38;2.28;;;;;;;8.85;100.00;96123.59;5030767;28;20403;-71
2022/10/25 03:43:44;;;;;;;4.03;2.35;;;;;;;8.77;100.00;96123.38;5030934;28;20029;-65
2022/10/25 03:46:09;;;;;;;2.45;2.25;;;;;;;8.81;100.00;96132.69;5030346;28;20514;-64
2022/10/25 03:48:35;;;;;;;4.45;2.28;;;;;;;8.80;100.00;96130.16;5030766;28;20034;-64
2022/10/25 03:51:00;;;;;;;4.25;2.25;;;;;;;8.74;100.00;96127.06;5030225;28;20479;-65
2022/10/25 03:53:25;;;;;;;2.58;2.38;;;;;;;8.69;100.00;96131.84;5030506;28;20552;-64
2022/10/25 03:55:51;;;;;;;2.45;2.35;;;;;;;8.69;100.00;96131.84;5029517;28;20045;-65
2022/10/25 03:58:17;;;;;;;3.42;2.08;;;;;;;8.70;100.00;96124.81;5030617;28;20415;-59
2022/10/25 04:00:42;;;;;;;2.47;2.28;;;;;;;8.69;100.00;96136.25;5030250;28;20099;-63
2022/10/25 04:03:08;;;;;;;4.82;2.15;;;;;;;8.66;100.00;96128.63;5030484;28;20037;-59
2022/10/25 04:05:33;;;;;;;6.88;2.30;;;;;;;8.68;100.00;96127.56;5030152;28;20104;-60
2022/10/25 04:07:58;;;;;;;2.50;2.13;;;;;;;8.71;100.00;96137.81;5030237;28;20025;-59
2022/10/25 04:10:24;;;;;;;2.95;2.38;;;;;;;8.66;100.00;96137.34;5030035;28;20487;-59
2022/10/25 04:12:51;;;;;;;5.20;2.28;;;;;;;8.68;100.00;96134.59;5030606;28;20682;-59
2022/10/25 04:15:17;;;;;;;2.72;2.53;;;;;;;8.67;100.00;96138.16;5030259;28;20479;-59
2022/10/25 04:17:43;;;;;;;4.43;2.90;;;;;;;8.63;100.00;96140.22;5030061;28;20029;-67
2022/10/25 04:20:08;;;;;;;3.63;2.60;;;;;;;8.58;100.00;96143.19;5030045;28;20029;-60
2022/10/25 04:22:34;;;;;;;2.85;2.13;;;;;;;8.53;100.00;96145.34;5030162;28;20033;-59
2022/10/25 04:24:59;;;;;;;2.70;2.50;;;;;;;8.50;100.00;96142.94;5029813;28;20083;-59
2022/10/25 04:27:25;;;;;;;3.00;2.70;;;;;;;8.46;100.00;96138.84;5030052;28;20025;-60
2022/10/25 04:29:50;;;;;;;4.00;2.60;;;;;;;8.44;100.00;96146.00;5030031;28;20049;-59
2022/10/25 04:32:15;;;;;;;3.13;2.70;;;;;;;8.46;100.00;96142.31;5029841;28;20033;-59
2022/10/25 04:34:41;;;;;;;4.25;2.78;;;;;;;8.47;100.00;96143.13;5029625;28;20079;-59
2022/10/25 04:37:06;;;;;;;3.67;2.58;;;;;;;8.42;100.00;96137.41;5029873;28;20025;-65
2022/10/25 04:39:31;;;;;;;6.53;3.10;;;;;;;8.44;100.00;96143.38;5029751;28;20559;-63
2022/10/25 04:41:57;;;;;;;4.25;2.60;;;;;;;8.40;100.00;96147.19;5029885;28;20075;-60
2022/10/25 04:44:22;;;;;;;10.10;3.47;;;;;;;8.44;100.00;96138.13;5029441;28;20406;-59
2022/10/25 04:46:47;;;;;;;3.15;2.88;;;;;;;8.48;100.00;96147.44;5030036;28;20056;-60
2022/10/25 04:49:14;;;;;;;3.47;2.83;;;;;;;8.45;100.00;96152.91;5029819;28;20029;-60
2022/10/25 04:51:40;;;;;;;5.93;2.80;;;;;;;8.44;100.00;96143.38;5029626;28;20025;-60
2022/10/25 04:54:06;;;;;;;7.60;3.00;;;;;;;8.46;100.00;96157.22;5016811;28;20029;-60
2022/10/25 04:56:32;;;;;;;3.83;3.08;;;;;;;8.46;100.00;96151.97;5029032;28;20099;-59
2022/10/25 04:58:58;;;;;;;5.55;2.55;;;;;;;8.42;100.00;96153.16;5029001;28;20412;-66
2022/10/25 05:01:23;;;;;;;4.10;2.53;;;;;;;8.36;100.00;96143.13;5029771;28;20036;-67
2022/10/25 05:03:49;;;;;;;4.63;2.80;;;;;;;8.29;100.00;96148.00;5029385;28;20025;-66
2022/10/25 05:06:24;;;;;;;3.97;2.58;;;;;;;8.31;100.00;96143.47;5029379;28;20917;-67
2022/10/25 05:08:50;;;;;;;2.83;2.60;;;;;;;8.34;100.00;96147.66;5026890;28;20048;-66
2022/10/25 05:11:22;;;;;;;8.80;3.25;;;;;;;8.33;100.00;96144.19;5029351;28;20040;-66
2022/10/25 05:13:48;;;;;;;4.35;2.60;;;;;;;8.29;100.00;96151.47;5029362;28;20021;-66
2022/10/25 05:16:22;;;;;;;2.83;2.58;;;;;;;8.25;100.00;96149.19;5029471;28;20407;-59
2022/10/25 05:18:49;;;;;;;6.95;4.40;;;;;;;8.23;100.00;96148.47;5019551;28;20032;-59
2022/10/25 05:21:16;;;;;;;7.78;3.20;;;;;;;8.17;100.00;96150.59;5029358;28;20035;-60
2022/10/25 05:23:42;;;;;;;3.05;2.75;;;;;;;8.17;100.00;96155.00;5029408;28;20025;-60
2022/10/25 05:26:09;;;;;;;3.60;3.30;;;;;;;8.15;100.00;96149.06;5028830;28;20024;-60
2022/10/25 05:28:37;;;;;;;5.70;3.58;;;;;;;8.09;100.00;96142.47;5020910;28;20398;-59
2022/10/25 05:31:25;;;;;;;5.60;3.75;;;;;;;8.10;100.00;96138.09;5028888;28;20026;-59
2022/10/25 05:33:53;;;;;;;8.35;4.03;;;;;;;8.08;100.00;96138.19;5044409;28;20025;-59
2022/10/25 05:36:19;;;;;;;14.65;5.45;;;;;;;8.14;100.00;96142.97;5028963;28;20025;-72
2022/10/25 05:38:44;;;;;;;7.85;5.78;;;;;;;8.15;100.00;96133.31;5029227;28;20040;-63
2022/10/25 05:41:12;;;;;;;7.00;5.43;;;;;;;8.09;100.00;96131.16;5028980;28;20219;-63
2022/10/25 05:43:37;;;;;;;10.20;4.72;;;;;;;8.05;100.00;96132.31;5029119;28;20044;-63
2022/10/25 05:46:15;;;;;;;8.10;4.10;;;;;;;8.07;100.00;96131.28;5028948;28;20018;-64
2022/10/25 05:48:41;;;;;;;4.35;3.95;;;;;;;8.10;100.00;96132.84;5029247;28;20029;-63
2022/10/25 05:51:11;;;;;;;8.52;4.53;;;;;;;8.12;100.00;96123.06;5029253;28;20228;-63
2022/10/25 05:53:41;;;;;;;4.47;3.78;;;;;;;8.09;100.00;96121.50;5028940;28;20034;-63
2022/10/25 05:56:06;;;;;;;6.70;4.32;;;;;;;8.09;100.00;96118.06;5028499;28;20040;-59
2022/10/25 05:58:31;;;;;;;5.07;4.60;;;;;;;8.11;100.00;96122.22;5029397;28;20142;-71
2022/10/25 06:00:58;;;;;;;8.80;4.50;;;;;;;8.07;100.00;96114.69;5029072;28;20037;-71
2022/10/25 06:03:24;;;;;;;4.55;3.63;;;;;;;8.02;100.00;96113.25;5029160;28;20199;-72
2022/10/25 06:05:49;;;;;;;6.78;4.57;;;;;;;7.95;100.00;96114.66;5029000;28;20541;-72
2022/10/25 06:08:15;;;;;;;7.72;4.55;;;;;;;7.92;100.00;96119.31;5028881;28;20189;-72
2022/10/25 06:10:40;;;;;;;8.48;4.25;;;;;;;7.90;100.00;96111.56;5027462;28;20025;-72
2022/10/25 06:13:05;;;;;;;10.10;4.03;;;;;;;7.91;100.00;96117.63;5028789;28;20639;-72
2022/10/25 06:15:31;;;;;;;4.03;3.72;;;;;;;7.93;100.00;96121.81;5028951;28;20461;-59
2022/10/25 06:17:56;;;;;;;8.25;4.72;;;;;;;7.91;100.00;96118.47;5028826;28;20083;-72
2022/10/25 06:20:21;;;;;;;6.05;4.25;;;;;;;7.90;100.00;96122.06;5030445;28;20025;-72
2022/10/25 06:22:47;;;;;;;5.13;4.63;;;;;;;7.89;100.00;96125.63;5032905;28;20017;-72
2022/10/25 06:25:12;;;;;;;5.72;4.57;;;;;;;7.91;100.00;96133.38;5031819;28;20021;-72
2022/10/25 06:27:37;;;;;;;5.10;4.70;;;;;;;7.94;100.00;96133.13;5032387;28;20457;-72
2022/10/25 06:30:03;;;;;;;7.65;3.58;;;;;;;7.95;100.00;96140.03;5031983;28;20028;-72
2022/10/25 06:32:28;;;;;;;5.70;3.80;;;;;;;7.97;100.00;96143.41;5032544;28;20100;-71
2022/10/25 06:34:54;;;;;;;7.35;4.95;;;;;;;7.98;100.00;96139.84;5031761;28;20107;-71
2022/10/25 06:37:19;;;;;;;7.97;5.20;;;;;;;7.98;100.00;96140.66;5031465;28;20037;-71
2022/10/25 06:39:44;;;;;;;8.52;3.95;;;;;;;7.94;100.00;96148.84;5032360;28;20033;-71
2022/10/25 06:42:10;;;;;;;5.03;3.70;;;;;;;7.94;100.00;96144.47;5031709;28;20116;-71
2022/10/25 06:44:35;;;;;;;5.13;4.32;;;;;;;7.95;100.00;96146.13;5032197;28;20083;-71
2022/10/25 06:47:01;;;;;;;6.88;4.20;;;;;;;7.95;100.00;96153.16;5031963;28;20033;-71
2022/10/25 06:49:27;;;;;;;8.25;4.50;;;;;;;7.92;100.00;96151.63;5047389;28;20053;-71
2022/10/25 06:51:52;;;;;;;5.05;4.43;;;;;;;7.96;100.00;96160.09;5031672;28;20021;-68
2022/10/25 06:54:18;;;;;;;5.60;4.75;;;;;;;8.02;100.00;96157.00;5031824;28;20506;-71
2022/10/25 06:56:43;;;;;;;15.43;5.55;;;;;;;8.07;100.00;96167.97;5031723;28;20049;-72
2022/10/25 06:59:08;;;;;;;8.07;6.30;;;;;;;8.09;100.00;96171.31;5031439;28;20112;-71
2022/10/25 07:01:34;;;;;;;9.00;6.15;;;;;;;8.08;100.00;96171.47;5031923;28;20054;-71
2022/10/25 07:04:01;;;;;;;8.68;6.47;;;;;;;8.07;100.00;96172.38;5031321;28;20032;-72
2022/10/25 07:06:34;;;;;;;8.07;6.45;;;;;;;8.08;100.00;96174.06;5031962;28;20028;-71
2022/10/25 07:09:01;;;;;;;11.52;5.70;;;;;;;8.09;100.00;96179.19;5031502;28;20029;-71
2022/10/25 07:11:28;;;;;;;5.85;5.35;;;;;;;8.07;100.00;96178.47;5031703;28;20040;-68
2022/10/25 07:13:55;;;;;;;11.70;4.75;;;;;;;8.07;100.00;96177.63;5031087;28;20514;-63
2022/10/25 07:16:20;;;;;;;6.50;5.00;;;;;;;8.09;100.00;96178.38;5031751;28;20040;-63
2022/10/25 07:18:47;;;;;;;5.50;4.55;;;;;;;8.10;100.00;96172.19;5046056;28;20414;-63
2022/10/25 07:21:19;;;;;;;5.05;4.50;;;;;;;8.13;100.00;96166.69;5031120;28;20029;-63
2022/10/25 07:23:45;;;;;;;6.85;4.40;;;;;;;8.15;100.00;96172.66;5030935;28;20116;-63
2022/10/25 07:26:13;;;;;;;8.20;5.00;;;;;;;8.20;100.00;96169.69;5031102;28;20026;-63
2022/10/25 07:28:39;;;;;;;6.43;4.88;;;;;;;8.22;100.00;96173.03;5018206;28;20029;-63
2022/10/25 07:31:06;;;;;;;8.60;5.32;;;;;;;8.22;100.00;96171.22;5029353;28;20112;-63
2022/10/25 07:33:32;;;;;;;7.55;5.95;;;;;;;8.23;100.00;96169.47;5030044;28;20029;-71
2022/10/25 07:35:57;;;;;;;7.93;6.53;;;;;;;8.25;100.00;96165.75;5030852;28;20025;-71
2022/10/25 07:38:23;;;;;;;8.70;5.47;;;;;;;8.28;100.00;96168.13;5031042;28;20022;-71
2022/10/25 07:40:54;;;;;;;18.52;6.70;;;;;;;8.32;100.00;96169.59;5030705;28;20013;-71
2022/10/25 07:43:19;;;;;;;10.82;7.60;;;;;;;8.36;100.00;96167.56;5030801;28;20029;-71
2022/10/25 07:45:45;;;;;;;17.02;8.35;;;;;;;8.36;100.00;96169.38;5030488;28;20486;-71
2022/10/25 07:48:10;;;;;;;9.43;8.45;;;;;;;8.37;100.00;96174.47;5031016;28;20064;-59
2022/10/25 07:50:35;;;;;;;9.80;8.32;;;;;;;8.37;100.00;96165.78;5030811;28;20030;-63
2022/10/25 07:53:01;;;;;;;10.60;6.88;;;;;;;8.33;100.00;96165.19;5030700;28;20029;-59
2022/10/25 07:55:26;;;;;;;12.43;7.07;;;;;;;8.32;100.00;96174.84;5030248;28;20056;-59
2022/10/25 07:57:51;;;;;;;9.73;7.50;;;;;;;8.39;100.00;96175.19;5030677;28;20138;-59
2022/10/25 08:00:17;;;;;;;8.70;6.65;;;;;;;8.42;100.00;96174.16;5030007;28;20418;-59
2022/10/25 08:02:42;;;;;;;9.55;6.55;;;;;;;8.46;100.00;96172.94;5030294;28;20044;-59
2022/10/25 08:05:08;;;;;;;9.77;6.97;;;;;;;8.47;100.00;96174.63;5030731;28;20033;-59
2022/10/25 08:07:34;;;;;;;11.55;7.45;;;;;;;8.55;100.00;96159.19;5030155;28;20052;-68
2022/10/25 08:09:59;;;;;;;7.68;6.70;;;;;;;8.66;100.00;96165.38;5030252;28;20075;-67
2022/10/25 08:12:25;;;;;;;8.57;6.82;;;;;;;8.81;100.00;96165.97;5030711;28;20018;-63
2022/10/25 08:14:50;;;;;;;8.13;6.35;;;;;;;8.98;100.00;96169.94;5030051;28;20022;-63
2022/10/25 08:17:16;;;;;;;7.10;6.40;;;;;;;9.13;100.00;96162.63;5028601;28;20057;-63
2022/10/25 08:19:42;;;;;;;6.93;6.15;;;;;;;9.29;100.00;96156.97;5029165;28;20113;-63
2022/10/25 08:22:07;;;;;;;15.45;6.75;;;;;;;9.38;100.00;96155.41;5030124;28;20040;-63
2022/10/25 08:24:34;;;;;;;7.35;5.65;;;;;;;9.46;100.00;96143.31;5029875;28;20071;-63
2022/10/25 08:27:00;;;;;;;5.80;5.30;;;;;;;9.58;100.00;96140.66;5030154;28;20028;-71
2022/10/25 08:29:26;;;;;;;8.10;4.80;;;;;;;9.70;100.00;96128.28;5029806;28;20033;-63
2022/10/25 08:31:51;;;;;;;11.00;5.35;;;;;;;9.77;100.00;96128.63;5030055;28;20025;-67
2022/10/25 08:34:16;;;;;;;6.65;4.05;;;;;;;9.86;100.00;96139.22;5029825;28;20056;-68
2022/10/25 08:36:42;;;;;;;5.65;4.25;;;;;;;9.91;100.00;96133.59;5030071;28;20049;-68
2022/10/25 08:39:07;;;;;;;5.20;3.85;;;;;;;9.95;100.00;96135.00;5029464;28;20095;-68
2022/10/25 08:41:44;;;;;;;5.35;3.67;;;;;;;10.01;100.00;96141.56;5030036;28;20087;-68
2022/10/25 08:44:47;;;;;;;4.85;3.22;;;;;;;10.08;100.00;96141.91;5029422;28;20406;-68
2022/10/25 08:47:21;;;;;;;4.32;3.20;;;;;;;10.18;100.00;96132.25;5025093;28;20037;-64
2022/10/25 08:49:52;;;;;;;3.83;3.05;;;;;;;10.29;100.00;96124.31;5029582;28;20052;-65
2022/10/25 08:52:28;;;;;;;4.25;2.72;;;;;;;10.43;100.00;96124.94;5029051;28;20107;-65
2022/10/25 08:54:57;;;;;;;4.65;3.33;;;;;;;10.59;100.00;96127.09;5029579;28;20397;-64
2022/10/25 08:57:26;;;;;;;3.58;3.13;;;;;;;10.72;100.00;96127.72;5029353;28;20531;-64
2022/10/25 08:59:54;;;;;;;3.55;2.90;;;;;;;10.81;100.00;96135.78;5029508;28;20563;-64
2022/10/25 09:02:32;;;;;;;3.17;2.60;;;;;;;10.76;100.00;96146.75;5023800;28;20044;-64
2022/10/25 09:04:58;;;;;;;5.60;4.30;;;;;;;10.80;100.00;96148.16;5025081;28;20026;-66
2022/10/25 09:07:55;;;;;;;3.95;2.85;;;;;;;10.89;100.00;96151.78;5028458;28;20041;-71
2022/10/25 09:10:47;;;;;;;3.80;2.55;;;;;;;10.97;100.00;96153.75;5016826;28;20052;-70
2022/10/25 09:13:44;;;;;;;5.38;2.10;;;;;;;11.04;100.00;96150.44;5029220;28;20101;-70
2022/10/25 09:16:17;;;;;;;2.05;1.85;;;;;;;11.12;100.00;96147.13;5029163;28;20407;-70
2022/10/25 09:18:49;;;;;;;11.77;2.17;;;;;;;11.22;100.00;96148.97;5029678;28;20026;-70
2022/10/25 09:21:39;;;;;;;5.68;1.98;;;;;;;11.30;100.00;96149.13;5029501;28;20021;-70
2022/10/25 09:24:20;;;;;;;3.78;2.45;;;;;;;11.39;100.00;96152.75;5029270;28;20025;-69
2022/10/25 09:27:03;;;;;;;7.13;2.10;;;;;;;11.37;100.00;96160.78;5019169;28;20025;-70
2022/10/25 09:29:53;;;;;;;2.53;2.30;;;;;;;11.37;100.00;96159.97;5028995;28;20033;-65
2022/10/25 09:32:27;;;;;;;8.38;2.75;;;;;;;11.36;100.00;96150.41;5029361;28;20025;-65
2022/10/25 09:34:53;;;;;;;6.72;2.83;;;;;;;11.39;100.00;96145.69;5028904;28;20557;-65
2022/10/25 09:37:27;;;;;;;3.70;2.15;;;;;;;11.45;100.00;96162.75;5029430;28;20032;-65
2022/10/25 09:40:04;;;;;;;3.25;2.10;;;;;;;11.49;100.00;96161.50;5029827;28;20025;-66
2022/10/25 09:42:36;;;;;;;2.38;2.17;;;;;;;11.52;100.00;96158.63;5028929;28;20482;-65
2022/10/25 09:45:07;;;;;;;2.28;2.10;;;;;;;11.58;100.00;96152.78;5029094;28;20025;-69
2022/10/25 09:47:51;;;;;;;2.22;2.00;;;;;;;11.65;100.00;96153.09;5028984;28;20471;-67
2022/10/25 09:50:31;;;;;;;1.65;1.65;;;;;;;11.72;100.00;96156.00;5028981;28;20159;-67
2022/10/25 09:53:14;;;;;;;1.98;1.67;;;;;;;11.87;100.00;96140.59;5029030;28;20104;-67
2022/10/25 09:55:53;;;;;;;1.70;1.60;;;;;;;11.83;100.00;96149.78;5030962;28;20460;-67
2022/10/25 09:58:24;;;;;;;5.30;1.60;;;;;;;11.81;100.00;96139.34;5033000;28;20033;-67
2022/10/25 10:00:52;;;;;;;3.30;1.58;;;;;;;11.90;100.00;96140.31;5032909;28;20071;-66
2022/10/25 10:03:19;;;;;;;1.70;1.60;;;;;;;11.89;100.00;96136.03;5032709;28;20033;-66
2022/10/25 10:05:51;;;;;;;2.20;1.48;;;;;;;11.95;100.00;96132.81;5032467;28;20044;-67
2022/10/25 10:08:16;;;;;;;4.35;1.65;;;;;;;11.97;100.00;96136.16;5033254;28;20045;-64
2022/10/25 10:10:45;;;;;;;4.28;1.85;;;;;;;12.03;100.00;96135.59;5032383;28;20029;-64
2022/10/25 10:13:27;;;;;;;2.45;1.38;;;;;;;12.11;100.00;96126.19;5032662;28;20036;-64
2022/10/25 10:15:55;;;;;;;1.70;1.60;;;;;;;12.17;100.00;96125.59;5022076;28;20800;-66
2022/10/25 10:18:25;;;;;;;4.68;1.55;;;;;;;12.24;100.00;96123.25;5031288;28;20025;-64
2022/10/25 10:21:08;;;;;;;4.57;1.70;;;;;;;12.24;100.00;96110.84;5031036;28;20044;-65
2022/10/25 10:23:48;;;;;;;1.92;1.80;;;;;;;12.39;100.00;96107.78;5035015;28;20041;-68
2022/10/25 10:26:23;;;;;;;3.28;1.52;;;;;;;12.55;100.00;96102.72;5024226;28;20032;-71
2022/10/25 10:28:53;;;;;;;2.40;1.42;;;;;;;12.58;100.00;96112.16;5032029;28;20564;-70
2022/10/25 10:31:19;;;;;;;1.55;1.45;;;;;;;12.57;100.00;96108.69;5032167;28;20558;-70
2022/10/25 10:33:49;;;;;;;1.75;1.42;;;;;;;12.65;100.00;96107.13;5032197;28;20032;-71
2022/10/25 10:36:25;;;;;;;1.67;1.58;;;;;;;12.83;100.00;96110.69;5031877;28;20037;-70
2022/10/25 10:38:51;;;;;;;3.35;2.03;;;;;;;12.99;100.00;96114.50;5032358;28;20029;-70
2022/10/25 10:41:23;;;;;;;2.50;1.67;;;;;;;13.20;100.00;96108.97;5031909;28;20083;-70
2022/10/25 10:43:49;;;;;;;7.40;1.77;;;;;;;13.37;100.00;96104.69;5032187;28;20031;-66
2022/10/25 10:46:18;;;;;;;5.97;2.13;;;;;;;13.49;100.00;96107.16;5031791;28;20390;-68
2022/10/25 10:48:52;;;;;;;4.53;1.73;;;;;;;13.72;100.00;96104.91;5031843;28;20041;-68
2022/10/25 10:51:21;;;;;;;5.05;1.75;;;;;;;13.91;100.00;96109.19;5032082;28;20034;-68
2022/10/25 10:53:46;;;;;;;4.10;1.80;;;;;;;13.91;100.00;96114.50;5031963;28;20029;-68
2022/10/25 10:56:22;;;;;;;5.43;1.90;;;;;;;13.95;100.00;96115.03;5032132;28;20068;-68
2022/10/25 10:58:49;;;;;;;1.88;1.77;;;;;;;14.02;100.00;96122.19;5031934;28;20065;-69
2022/10/25 11:01:28;;;;;;;1.70;1.60;;;;;;;14.11;100.00;96111.66;5031709;28;20055;-60
2022/10/25 11:03:58;;;;;;;4.53;1.67;;;;;;;14.08;100.00;96109.34;5031639;28;20048;-67
2022/10/25 11:07:11;;;;;;;3.05;1.70;;;;;;;14.17;100.00;96103.94;5031579;28;20021;-67
2022/10/25 11:09:37;;;;;;;5.10;2.25;;;;;;;14.37;100.00;96100.25;5023647;28;20033;-67
2022/10/25 11:12:09;;;;;;;4.18;1.75;;;;;;;14.43;100.00;96097.84;5031270;28;20017;-67
2022/10/25 11:14:35;;;;;;;3.63;1.40;;;;;;;14.59;100.00;96089.13;5031500;28;20569;-67
2022/10/25 11:17:06;;;;;;;1.50;1.40;;;;;;;14.76;100.00;96078.66;5031052;28;20025;-67
2022/10/25 11:19:56;;;;;;;1.70;1.60;;;;;;;14.83;100.00;96079.69;5030932;28;20029;-67
2022/10/25 11:22:24;;;;;;;3.35;1.40;;;;;;;14.93;100.00;96068.94;5031693;28;20379;-68
2022/10/25 11:24:49;;;;;;;2.20;1.50;;;;;;;15.00;100.00;96066.50;5030962;28;20025;-65
2022/10/25 11:27:31;;;;;;;4.05;1.40;;;;;;;14.96;97.32;96062.50;5031218;28;20364;-65
2022/10/25 11:30:15;;;;;;;3.05;1.20;;;;;;;14.93;96.32;96055.69;5031013;28;20018;-64
2022/10/25 11:33:05;;;;;;;2.00;1.25;;;;;;;14.98;95.78;96049.91;5046015;28;20067;-65
2022/10/25 11:35:37;;;;;;;2.33;1.58;;;;;;;14.98;93.66;96052.56;5046507;28;20504;-65
2022/10/25 11:38:53;;;;;;;1.92;1.45;;;;;;;15.04;88.08;96050.13;5018530;28;20498;-65
2022/10/25 11:41:44;;;;;;;1.67;1.10;;;;;;;15.10;92.75;96045.97;5017642;28;20051;-68
2022/10/25 11:44:19;;;;;;;1.35;1.30;;;;;;;15.26;95.50;96049.66;5030698;28;20017;-65